sensor_id;sensor_type;location;lat;lon;timestamp;temperature;humidity
76102;SHT30;64830;46.910;6.354;2022-11-20T00:00:09;4.86;85.29
76102;SHT30;64830;46.910;6.354;2022-11-20T00:02:34;4.90;85.33
76102;SHT30;64830;46.910;6.354;2022-11-20T00:04:59;4.95;85.11
76102;SHT30;64830;46.910;6.354;2022-11-20T00:07:25;4.95;85.09
76102;SHT30;64830;46.910;6.354;2022-11-20T00:09:50;5.00;85.10
76102;SHT30;64830;46.910;6.354;2022-11-20T00:12:15;4.99;84.68
76102;SHT30;64830;46.910;6.354;2022-11-20T00:14:41;4.99;84.57
76102;SHT30;64830;46.910;6.354;2022-11-20T00:17:06;4.97;84.78
76102;SHT30;64830;46.910;6.354;2022-11-20T00:19:32;4.95;84.73
76102;SHT30;64830;46.910;6.354;2022-11-20T00:21:57;4.89;85.18
76102;SHT30;64830;46.910;6.354;2022-11-20T00:24:23;4.86;85.02
76102;SHT30;64830;46.910;6.354;2022-11-20T00:26:48;4.89;85.03
76102;SHT30;64830;46.910;6.354;2022-11-20T00:29:13;4.88;85.11
76102;SHT30;64830;46.910;6.354;2022-11-20T00:31:39;4.90;85.27
76102;SHT30;64830;46.910;6.354;2022-11-20T00:34:04;4.90;85.36
76102;SHT30;64830;46.910;6.354;2022-11-20T00:36:33;4.88;85.18
76102;SHT30;64830;46.910;6.354;2022-11-20T00:38:59;4.89;85.10
76102;SHT30;64830;46.910;6.354;2022-11-20T00:41:26;4.90;85.36
76102;SHT30;64830;46.910;6.354;2022-11-20T00:43:53;4.92;85.47
76102;SHT30;64830;46.910;6.354;2022-11-20T00:46:21;4.90;85.27
76102;SHT30;64830;46.910;6.354;2022-11-20T00:48:47;4.92;85.33
76102;SHT30;64830;46.910;6.354;2022-11-20T00:51:14;4.96;85.48
76102;SHT30;64830;46.910;6.354;2022-11-20T00:53:40;4.96;85.22
76102;SHT30;64830;46.910;6.354;2022-11-20T00:56:10;5.00;85.23
76102;SHT30;64830;46.910;6.354;2022-11-20T00:58:37;5.00;85.22
76102;SHT30;64830;46.910;6.354;2022-11-20T01:01:25;5.05;84.94
76102;SHT30;64830;46.910;6.354;2022-11-20T01:03:51;5.06;85.29
76102;SHT30;64830;46.910;6.354;2022-11-20T01:06:23;5.06;84.76
76102;SHT30;64830;46.910;6.354;2022-11-20T01:08:50;5.06;84.79
76102;SHT30;64830;46.910;6.354;2022-11-20T01:11:20;5.07;85.10
76102;SHT30;64830;46.910;6.354;2022-11-20T01:13:48;5.07;85.24
76102;SHT30;64830;46.910;6.354;2022-11-20T01:16:19;5.12;85.39
76102;SHT30;64830;46.910;6.354;2022-11-20T01:18:47;5.16;85.22
76102;SHT30;64830;46.910;6.354;2022-11-20T01:21:18;5.13;84.82
76102;SHT30;64830;46.910;6.354;2022-11-20T01:23:45;5.05;84.62
76102;SHT30;64830;46.910;6.354;2022-11-20T01:26:13;5.03;85.28
76102;SHT30;64830;46.910;6.354;2022-11-20T01:28:40;5.00;85.34
76102;SHT30;64830;46.910;6.354;2022-11-20T01:31:23;5.01;85.12
76102;SHT30;64830;46.910;6.354;2022-11-20T01:33:51;4.99;85.21
76102;SHT30;64830;46.910;6.354;2022-11-20T01:36:19;4.95;85.40
76102;SHT30;64830;46.910;6.354;2022-11-20T01:38:45;4.95;85.44
76102;SHT30;64830;46.910;6.354;2022-11-20T01:41:12;4.89;85.44
76102;SHT30;64830;46.910;6.354;2022-11-20T01:43:57;4.81;85.40
76102;SHT30;64830;46.910;6.354;2022-11-20T01:46:23;4.69;85.47
76102;SHT30;64830;46.910;6.354;2022-11-20T01:51:30;4.64;85.88
76102;SHT30;64830;46.910;6.354;2022-11-20T01:54:00;4.64;85.77
76102;SHT30;64830;46.910;6.354;2022-11-20T01:56:28;4.62;85.81
76102;SHT30;64830;46.910;6.354;2022-11-20T01:58:58;4.65;85.62
76102;SHT30;64830;46.910;6.354;2022-11-20T02:01:25;4.68;85.48
76102;SHT30;64830;46.910;6.354;2022-11-20T02:03:51;4.64;85.24
76102;SHT30;64830;46.910;6.354;2022-11-20T02:06:26;4.65;85.37
76102;SHT30;64830;46.910;6.354;2022-11-20T02:08:53;4.67;85.56
76102;SHT30;64830;46.910;6.354;2022-11-20T02:11:19;4.69;85.46
76102;SHT30;64830;46.910;6.354;2022-11-20T02:13:46;4.71;84.87
76102;SHT30;64830;46.910;6.354;2022-11-20T02:16:26;4.72;85.05
76102;SHT30;64830;46.910;6.354;2022-11-20T02:18:54;4.76;85.24
76102;SHT30;64830;46.910;6.354;2022-11-20T02:21:32;4.76;85.18
76102;SHT30;64830;46.910;6.354;2022-11-20T02:24:09;4.82;85.40
76102;SHT30;64830;46.910;6.354;2022-11-20T02:26:53;4.85;85.18
76102;SHT30;64830;46.910;6.354;2022-11-20T02:29:31;4.85;85.23
76102;SHT30;64830;46.910;6.354;2022-11-20T02:31:59;4.86;85.06
76102;SHT30;64830;46.910;6.354;2022-11-20T02:34:26;4.89;85.18
76102;SHT30;64830;46.910;6.354;2022-11-20T02:36:52;4.88;84.88
76102;SHT30;64830;46.910;6.354;2022-11-20T02:39:19;4.89;84.95
76102;SHT30;64830;46.910;6.354;2022-11-20T02:41:45;4.89;85.10
76102;SHT30;64830;46.910;6.354;2022-11-20T02:44:11;4.89;84.44
76102;SHT30;64830;46.910;6.354;2022-11-20T02:46:37;4.86;84.36
76102;SHT30;64830;46.910;6.354;2022-11-20T02:49:03;4.89;85.16
76102;SHT30;64830;46.910;6.354;2022-11-20T02:51:29;4.89;85.06
76102;SHT30;64830;46.910;6.354;2022-11-20T02:53:55;4.95;85.08
76102;SHT30;64830;46.910;6.354;2022-11-20T02:56:20;4.92;84.66
76102;SHT30;64830;46.910;6.354;2022-11-20T02:58:46;4.93;85.13
76102;SHT30;64830;46.910;6.354;2022-11-20T03:01:11;4.93;85.17
76102;SHT30;64830;46.910;6.354;2022-11-20T03:03:36;4.96;84.95
76102;SHT30;64830;46.910;6.354;2022-11-20T03:06:02;4.97;84.80
76102;SHT30;64830;46.910;6.354;2022-11-20T03:08:28;4.99;84.45
76102;SHT30;64830;46.910;6.354;2022-11-20T03:10:53;4.99;83.95
76102;SHT30;64830;46.910;6.354;2022-11-20T03:13:19;4.95;83.70
76102;SHT30;64830;46.910;6.354;2022-11-20T03:15:44;4.89;83.51
76102;SHT30;64830;46.910;6.354;2022-11-20T03:18:09;4.86;83.72
76102;SHT30;64830;46.910;6.354;2022-11-20T03:20:35;4.86;83.90
76102;SHT30;64830;46.910;6.354;2022-11-20T03:23:01;4.86;84.27
76102;SHT30;64830;46.910;6.354;2022-11-20T03:25:26;4.90;84.20
76102;SHT30;64830;46.910;6.354;2022-11-20T03:27:52;4.90;84.11
76102;SHT30;64830;46.910;6.354;2022-11-20T03:30:17;4.92;84.11
76102;SHT30;64830;46.910;6.354;2022-11-20T03:32:43;4.92;84.35
76102;SHT30;64830;46.910;6.354;2022-11-20T03:35:10;4.93;84.46
76102;SHT30;64830;46.910;6.354;2022-11-20T03:37:35;4.95;84.16
76102;SHT30;64830;46.910;6.354;2022-11-20T03:40:00;4.96;84.26
76102;SHT30;64830;46.910;6.354;2022-11-20T03:42:26;4.97;84.49
76102;SHT30;64830;46.910;6.354;2022-11-20T03:45:10;4.95;84.07
76102;SHT30;64830;46.910;6.354;2022-11-20T03:47:35;4.93;84.60
76102;SHT30;64830;46.910;6.354;2022-11-20T03:50:01;4.97;84.70
76102;SHT30;64830;46.910;6.354;2022-11-20T03:52:26;4.97;84.78
76102;SHT30;64830;46.910;6.354;2022-11-20T03:54:51;4.97;84.95
76102;SHT30;64830;46.910;6.354;2022-11-20T03:57:17;4.96;84.83
76102;SHT30;64830;46.910;6.354;2022-11-20T03:59:42;4.92;84.75
76102;SHT30;64830;46.910;6.354;2022-11-20T04:02:07;4.92;85.00
76102;SHT30;64830;46.910;6.354;2022-11-20T04:04:33;4.92;84.94
76102;SHT30;64830;46.910;6.354;2022-11-20T04:06:58;4.92;84.78
76102;SHT30;64830;46.910;6.354;2022-11-20T04:09:24;4.86;84.45
76102;SHT30;64830;46.910;6.354;2022-11-20T04:11:50;4.75;84.43
76102;SHT30;64830;46.910;6.354;2022-11-20T04:14:16;4.71;84.64
76102;SHT30;64830;46.910;6.354;2022-11-20T04:16:42;4.65;84.48
76102;SHT30;64830;46.910;6.354;2022-11-20T04:19:15;4.64;84.90
76102;SHT30;64830;46.910;6.354;2022-11-20T04:21:42;4.65;85.18
76102;SHT30;64830;46.910;6.354;2022-11-20T04:24:08;4.64;85.20
76102;SHT30;64830;46.910;6.354;2022-11-20T04:26:35;4.64;85.11
76102;SHT30;64830;46.910;6.354;2022-11-20T04:29:01;4.71;85.14
76102;SHT30;64830;46.910;6.354;2022-11-20T04:31:32;4.73;84.89
76102;SHT30;64830;46.910;6.354;2022-11-20T04:34:02;4.76;84.96
76102;SHT30;64830;46.910;6.354;2022-11-20T04:36:29;4.75;84.97
76102;SHT30;64830;46.910;6.354;2022-11-20T04:38:57;4.78;84.68
76102;SHT30;64830;46.910;6.354;2022-11-20T04:41:25;4.78;84.92
76102;SHT30;64830;46.910;6.354;2022-11-20T04:43:53;4.78;84.56
76102;SHT30;64830;46.910;6.354;2022-11-20T04:46:23;4.75;84.80
76102;SHT30;64830;46.910;6.354;2022-11-20T04:48:49;4.73;84.41
76102;SHT30;64830;46.910;6.354;2022-11-20T04:51:14;4.71;84.03
76102;SHT30;64830;46.910;6.354;2022-11-20T04:53:41;4.61;84.34
76102;SHT30;64830;46.910;6.354;2022-11-20T04:56:08;4.54;84.51
76102;SHT30;64830;46.910;6.354;2022-11-20T04:58:35;4.51;84.75
76102;SHT30;64830;46.910;6.354;2022-11-20T05:01:12;4.45;84.95
76102;SHT30;64830;46.910;6.354;2022-11-20T05:03:39;4.37;84.80
76102;SHT30;64830;46.910;6.354;2022-11-20T05:06:06;4.36;85.08
76102;SHT30;64830;46.910;6.354;2022-11-20T05:08:33;4.27;84.82
76102;SHT30;64830;46.910;6.354;2022-11-20T05:11:06;4.17;84.91
76102;SHT30;64830;46.910;6.354;2022-11-20T05:13:32;4.11;85.26
76102;SHT30;64830;46.910;6.354;2022-11-20T05:16:04;4.13;85.65
76102;SHT30;64830;46.910;6.354;2022-11-20T05:18:30;4.11;85.80
76102;SHT30;64830;46.910;6.354;2022-11-20T05:20:59;4.16;86.03
76102;SHT30;64830;46.910;6.354;2022-11-20T05:23:25;4.13;85.73
76102;SHT30;64830;46.910;6.354;2022-11-20T05:25:54;4.09;85.88
76102;SHT30;64830;46.910;6.354;2022-11-20T05:28:20;4.06;86.45
76102;SHT30;64830;46.910;6.354;2022-11-20T05:30:46;4.03;86.09
76102;SHT30;64830;46.910;6.354;2022-11-20T05:33:11;3.93;86.67
76102;SHT30;64830;46.910;6.354;2022-11-20T05:35:36;3.88;86.44
76102;SHT30;64830;46.910;6.354;2022-11-20T05:38:02;3.82;86.94
76102;SHT30;64830;46.910;6.354;2022-11-20T05:40:27;3.78;86.98
76102;SHT30;64830;46.910;6.354;2022-11-20T05:42:53;3.77;86.85
76102;SHT30;64830;46.910;6.354;2022-11-20T05:45:18;3.83;87.17
76102;SHT30;64830;46.910;6.354;2022-11-20T05:47:43;3.83;86.61
76102;SHT30;64830;46.910;6.354;2022-11-20T05:50:09;3.83;86.73
76102;SHT30;64830;46.910;6.354;2022-11-20T05:52:34;3.88;86.20
76102;SHT30;64830;46.910;6.354;2022-11-20T05:55:00;3.83;86.59
76102;SHT30;64830;46.910;6.354;2022-11-20T05:57:25;3.81;86.39
76102;SHT30;64830;46.910;6.354;2022-11-20T05:59:50;3.78;86.16
76102;SHT30;64830;46.910;6.354;2022-11-20T06:02:16;3.72;86.38
76102;SHT30;64830;46.910;6.354;2022-11-20T06:04:41;3.70;86.19
76102;SHT30;64830;46.910;6.354;2022-11-20T06:07:07;3.71;86.57
76102;SHT30;64830;46.910;6.354;2022-11-20T06:09:33;3.71;86.31
76102;SHT30;64830;46.910;6.354;2022-11-20T06:11:58;3.74;86.13
76102;SHT30;64830;46.910;6.354;2022-11-20T06:14:23;3.75;86.60
76102;SHT30;64830;46.910;6.354;2022-11-20T06:16:49;3.79;86.29
76102;SHT30;64830;46.910;6.354;2022-11-20T06:19:14;3.81;86.53
76102;SHT30;64830;46.910;6.354;2022-11-20T06:21:40;3.86;86.64
76102;SHT30;64830;46.910;6.354;2022-11-20T06:24:06;3.85;85.84
76102;SHT30;64830;46.910;6.354;2022-11-20T06:26:32;3.86;86.03
76102;SHT30;64830;46.910;6.354;2022-11-20T06:28:57;3.88;86.18
76102;SHT30;64830;46.910;6.354;2022-11-20T06:31:24;3.91;86.13
76102;SHT30;64830;46.910;6.354;2022-11-20T06:33:51;3.98;86.18
76102;SHT30;64830;46.910;6.354;2022-11-20T06:36:19;4.00;86.06
76102;SHT30;64830;46.910;6.354;2022-11-20T06:38:45;4.06;86.01
76102;SHT30;64830;46.910;6.354;2022-11-20T06:41:12;4.11;85.69
76102;SHT30;64830;46.910;6.354;2022-11-20T06:43:38;4.14;85.74
76102;SHT30;64830;46.910;6.354;2022-11-20T06:46:04;4.23;85.70
76102;SHT30;64830;46.910;6.354;2022-11-20T06:48:29;4.24;85.38
76102;SHT30;64830;46.910;6.354;2022-11-20T06:50:55;4.24;85.25
76102;SHT30;64830;46.910;6.354;2022-11-20T06:53:22;4.21;85.47
76102;SHT30;64830;46.910;6.354;2022-11-20T06:55:50;4.21;85.50
76102;SHT30;64830;46.910;6.354;2022-11-20T06:58:16;4.24;85.55
76102;SHT30;64830;46.910;6.354;2022-11-20T07:00:42;4.24;85.10
76102;SHT30;64830;46.910;6.354;2022-11-20T07:03:09;4.24;85.00
76102;SHT30;64830;46.910;6.354;2022-11-20T07:05:35;4.26;85.14
76102;SHT30;64830;46.910;6.354;2022-11-20T07:08:01;4.26;85.14
76102;SHT30;64830;46.910;6.354;2022-11-20T07:10:26;4.29;85.28
76102;SHT30;64830;46.910;6.354;2022-11-20T07:12:53;4.30;85.22
76102;SHT30;64830;46.910;6.354;2022-11-20T07:15:19;4.30;85.10
76102;SHT30;64830;46.910;6.354;2022-11-20T07:17:45;4.30;85.34
76102;SHT30;64830;46.910;6.354;2022-11-20T07:20:11;4.33;85.22
76102;SHT30;64830;46.910;6.354;2022-11-20T07:22:37;4.30;85.26
76102;SHT30;64830;46.910;6.354;2022-11-20T07:25:03;4.32;85.41
76102;SHT30;64830;46.910;6.354;2022-11-20T07:27:29;4.30;85.13
76102;SHT30;64830;46.910;6.354;2022-11-20T07:29:55;4.29;85.34
76102;SHT30;64830;46.910;6.354;2022-11-20T07:32:20;4.23;85.14
76102;SHT30;64830;46.910;6.354;2022-11-20T07:34:46;4.21;85.38
76102;SHT30;64830;46.910;6.354;2022-11-20T07:37:11;4.20;85.52
76102;SHT30;64830;46.910;6.354;2022-11-20T07:39:37;4.19;85.52
76102;SHT30;64830;46.910;6.354;2022-11-20T07:42:02;4.26;85.67
76102;SHT30;64830;46.910;6.354;2022-11-20T07:44:27;4.30;85.84
76102;SHT30;64830;46.910;6.354;2022-11-20T07:46:53;4.36;85.67
76102;SHT30;64830;46.910;6.354;2022-11-20T07:49:18;4.38;85.76
76102;SHT30;64830;46.910;6.354;2022-11-20T07:51:44;4.43;85.38
76102;SHT30;64830;46.910;6.354;2022-11-20T07:54:09;4.41;85.74
76102;SHT30;64830;46.910;6.354;2022-11-20T07:56:34;4.43;85.76
76102;SHT30;64830;46.910;6.354;2022-11-20T07:59:00;4.44;85.96
76102;SHT30;64830;46.910;6.354;2022-11-20T08:01:25;4.50;86.09
76102;SHT30;64830;46.910;6.354;2022-11-20T08:03:51;4.50;85.66
76102;SHT30;64830;46.910;6.354;2022-11-20T08:06:16;4.50;86.26
76102;SHT30;64830;46.910;6.354;2022-11-20T08:08:42;4.54;86.16
76102;SHT30;64830;46.910;6.354;2022-11-20T08:11:08;4.61;86.16
76102;SHT30;64830;46.910;6.354;2022-11-20T08:13:51;4.60;85.80
76102;SHT30;64830;46.910;6.354;2022-11-20T08:16:35;4.62;86.12
76102;SHT30;64830;46.910;6.354;2022-11-20T08:19:01;4.65;85.91
76102;SHT30;64830;46.910;6.354;2022-11-20T08:21:26;4.68;85.52
76102;SHT30;64830;46.910;6.354;2022-11-20T08:23:51;4.75;85.77
76102;SHT30;64830;46.910;6.354;2022-11-20T08:26:17;4.82;85.67
76102;SHT30;64830;46.910;6.354;2022-11-20T08:28:42;4.90;84.94
76102;SHT30;64830;46.910;6.354;2022-11-20T08:31:09;4.89;84.75
76102;SHT30;64830;46.910;6.354;2022-11-20T08:33:35;4.96;85.15
76102;SHT30;64830;46.910;6.354;2022-11-20T08:36:01;5.00;85.02
76102;SHT30;64830;46.910;6.354;2022-11-20T08:38:26;5.16;85.21
76102;SHT30;64830;46.910;6.354;2022-11-20T08:40:52;5.34;84.91
76102;SHT30;64830;46.910;6.354;2022-11-20T08:43:40;5.43;84.56
76102;SHT30;64830;46.910;6.354;2022-11-20T08:46:05;5.51;85.11
76102;SHT30;64830;46.910;6.354;2022-11-20T08:48:30;5.65;84.23
76102;SHT30;64830;46.910;6.354;2022-11-20T08:50:58;5.78;84.67
76102;SHT30;64830;46.910;6.354;2022-11-20T08:53:24;5.85;84.37
76102;SHT30;64830;46.910;6.354;2022-11-20T08:55:49;5.86;83.52
76102;SHT30;64830;46.910;6.354;2022-11-20T08:58:15;5.82;83.93
76102;SHT30;64830;46.910;6.354;2022-11-20T09:00:40;5.79;82.58
76102;SHT30;64830;46.910;6.354;2022-11-20T09:03:05;5.75;82.86
76102;SHT30;64830;46.910;6.354;2022-11-20T09:05:31;5.73;82.64
76102;SHT30;64830;46.910;6.354;2022-11-20T09:07:57;5.78;83.65
76102;SHT30;64830;46.910;6.354;2022-11-20T09:10:23;5.79;83.07
76102;SHT30;64830;46.910;6.354;2022-11-20T09:12:49;5.88;82.92
76102;SHT30;64830;46.910;6.354;2022-11-20T09:15:14;5.89;82.87
76102;SHT30;64830;46.910;6.354;2022-11-20T09:17:40;5.92;82.70
76102;SHT30;64830;46.910;6.354;2022-11-20T09:20:05;5.92;83.07
76102;SHT30;64830;46.910;6.354;2022-11-20T09:22:31;5.99;83.22
76102;SHT30;64830;46.910;6.354;2022-11-20T09:24:56;6.02;81.80
76102;SHT30;64830;46.910;6.354;2022-11-20T09:27:22;5.97;82.35
76102;SHT30;64830;46.910;6.354;2022-11-20T09:29:47;5.96;82.36
76102;SHT30;64830;46.910;6.354;2022-11-20T09:32:12;5.96;82.47
76102;SHT30;64830;46.910;6.354;2022-11-20T09:34:38;6.05;82.83
76102;SHT30;64830;46.910;6.354;2022-11-20T09:37:03;6.07;81.70
76102;SHT30;64830;46.910;6.354;2022-11-20T09:39:28;6.13;82.58
76102;SHT30;64830;46.910;6.354;2022-11-20T09:45:16;6.16;81.64
76102;SHT30;64830;46.910;6.354;2022-11-20T09:53:12;6.11;81.06
76102;SHT30;64830;46.910;6.354;2022-11-20T09:55:39;6.10;80.15
76102;SHT30;64830;46.910;6.354;2022-11-20T09:58:16;6.03;79.88
76102;SHT30;64830;46.910;6.354;2022-11-20T10:00:46;5.99;81.24
76102;SHT30;64830;46.910;6.354;2022-11-20T10:03:54;6.05;81.93
76102;SHT30;64830;46.910;6.354;2022-11-20T10:06:18;6.09;80.46
76102;SHT30;64830;46.910;6.354;2022-11-20T10:08:55;6.03;80.21
76102;SHT30;64830;46.910;6.354;2022-11-20T10:14:13;5.89;80.00
76102;SHT30;64830;46.910;6.354;2022-11-20T10:27:39;5.44;81.15
76102;SHT30;64830;46.910;6.354;2022-11-20T10:32:58;5.37;82.35
76102;SHT30;64830;46.910;6.354;2022-11-20T10:36:00;5.43;82.35
76102;SHT30;64830;46.910;6.354;2022-11-20T10:38:36;5.48;82.70
76102;SHT30;64830;46.910;6.354;2022-11-20T10:41:05;5.56;82.45
76102;SHT30;64830;46.910;6.354;2022-11-20T10:43:53;5.59;82.83
76102;SHT30;64830;46.910;6.354;2022-11-20T10:46:22;5.71;82.19
76102;SHT30;64830;46.910;6.354;2022-11-20T10:48:49;5.89;82.62
76102;SHT30;64830;46.910;6.354;2022-11-20T10:51:21;6.03;81.59
76102;SHT30;64830;46.910;6.354;2022-11-20T10:56:34;6.21;80.96
76102;SHT30;64830;46.910;6.354;2022-11-20T11:01:26;6.14;81.70
76102;SHT30;64830;46.910;6.354;2022-11-20T11:03:53;6.14;81.37
76102;SHT30;64830;46.910;6.354;2022-11-20T11:06:43;6.10;80.02
76102;SHT30;64830;46.910;6.354;2022-11-20T11:09:12;6.02;79.67
76102;SHT30;64830;46.910;6.354;2022-11-20T11:11:39;5.89;81.06
76102;SHT30;64830;46.910;6.354;2022-11-20T11:14:14;5.79;81.94
76102;SHT30;64830;46.910;6.354;2022-11-20T11:16:56;5.76;80.97
76102;SHT30;64830;46.910;6.354;2022-11-20T11:19:23;5.65;81.20
76102;SHT30;64830;46.910;6.354;2022-11-20T11:21:54;5.61;81.86
76102;SHT30;64830;46.910;6.354;2022-11-20T11:24:27;5.50;81.84
76102;SHT30;64830;46.910;6.354;2022-11-20T11:26:58;5.35;81.75
76102;SHT30;64830;46.910;6.354;2022-11-20T11:29:25;5.27;82.16
76102;SHT30;64830;46.910;6.354;2022-11-20T11:32:10;5.12;81.71
76102;SHT30;64830;46.910;6.354;2022-11-20T11:34:36;5.07;82.31
76102;SHT30;64830;46.910;6.354;2022-11-20T11:37:02;5.10;81.93
76102;SHT30;64830;46.910;6.354;2022-11-20T11:39:32;5.09;82.45
76102;SHT30;64830;46.910;6.354;2022-11-20T11:42:00;5.17;82.69
76102;SHT30;64830;46.910;6.354;2022-11-20T11:44:34;5.31;82.14
76102;SHT30;64830;46.910;6.354;2022-11-20T11:47:43;5.43;81.38
76102;SHT30;64830;46.910;6.354;2022-11-20T11:55:33;6.14;81.85
76102;SHT30;64830;46.910;6.354;2022-11-20T11:58:06;6.41;81.83
76102;SHT30;64830;46.910;6.354;2022-11-20T12:00:35;6.67;81.28
76102;SHT30;64830;46.910;6.354;2022-11-20T12:03:13;6.87;76.51
76102;SHT30;64830;46.910;6.354;2022-11-20T12:05:49;6.95;79.28
76102;SHT30;64830;46.910;6.354;2022-11-20T12:10:59;7.13;79.42
76102;SHT30;64830;46.910;6.354;2022-11-20T12:16:19;7.35;77.87
76102;SHT30;64830;46.910;6.354;2022-11-20T12:18:49;7.31;78.03
76102;SHT30;64830;46.910;6.354;2022-11-20T12:21:19;7.23;78.74
76102;SHT30;64830;46.910;6.354;2022-11-20T12:30:14;7.06;79.08
76102;SHT30;64830;46.910;6.354;2022-11-20T12:43:50;6.93;78.23
76102;SHT30;64830;46.910;6.354;2022-11-20T12:46:47;6.90;77.34
76102;SHT30;64830;46.910;6.354;2022-11-20T12:52:12;6.86;76.04
76102;SHT30;64830;46.910;6.354;2022-11-20T13:05:18;6.73;77.63
76102;SHT30;64830;46.910;6.354;2022-11-20T13:07:44;6.75;75.97
76102;SHT30;64830;46.910;6.354;2022-11-20T13:10:31;6.73;76.97
76102;SHT30;64830;46.910;6.354;2022-11-20T13:13:08;6.69;76.84
76102;SHT30;64830;46.910;6.354;2022-11-20T13:18:11;6.79;77.51
76102;SHT30;64830;46.910;6.354;2022-11-20T13:20:41;6.89;77.37
76102;SHT30;64830;46.910;6.354;2022-11-20T13:23:07;6.95;77.78
76102;SHT30;64830;46.910;6.354;2022-11-20T13:25:38;6.99;76.58
76102;SHT30;64830;46.910;6.354;2022-11-20T13:28:26;7.00;76.99
76102;SHT30;64830;46.910;6.354;2022-11-20T13:30:53;6.96;76.86
76102;SHT30;64830;46.910;6.354;2022-11-20T13:35:57;6.87;76.62
76102;SHT30;64830;46.910;6.354;2022-11-20T13:38:23;6.90;76.97
76102;SHT30;64830;46.910;6.354;2022-11-20T13:40:54;6.90;76.37
76102;SHT30;64830;46.910;6.354;2022-11-20T13:46:14;6.79;76.48
76102;SHT30;64830;46.910;6.354;2022-11-20T13:48:45;6.72;76.20
76102;SHT30;64830;46.910;6.354;2022-11-20T13:51:29;6.69;76.90
76102;SHT30;64830;46.910;6.354;2022-11-20T13:57:20;6.62;77.59
76102;SHT30;64830;46.910;6.354;2022-11-20T14:00:26;6.61;77.23
76102;SHT30;64830;46.910;6.354;2022-11-20T14:03:20;6.58;76.82
76102;SHT30;64830;46.910;6.354;2022-11-20T14:05:52;6.58;77.42
76102;SHT30;64830;46.910;6.354;2022-11-20T14:08:38;6.59;77.14
76102;SHT30;64830;46.910;6.354;2022-11-20T14:11:28;6.62;77.38
76102;SHT30;64830;46.910;6.354;2022-11-20T14:14:12;6.67;77.60
76102;SHT30;64830;46.910;6.354;2022-11-20T14:16:38;6.65;77.64
76102;SHT30;64830;46.910;6.354;2022-11-20T14:21:46;6.73;78.58
76102;SHT30;64830;46.910;6.354;2022-11-20T14:24:12;6.71;78.35
76102;SHT30;64830;46.910;6.354;2022-11-20T14:26:43;6.67;78.03
76102;SHT30;64830;46.910;6.354;2022-11-20T14:29:21;6.62;78.52
76102;SHT30;64830;46.910;6.354;2022-11-20T14:31:50;6.67;78.45
76102;SHT30;64830;46.910;6.354;2022-11-20T14:34:21;6.62;78.47
76102;SHT30;64830;46.910;6.354;2022-11-20T14:36:47;6.64;78.61
76102;SHT30;64830;46.910;6.354;2022-11-20T14:39:21;6.59;78.96
76102;SHT30;64830;46.910;6.354;2022-11-20T14:41:51;6.61;78.55
76102;SHT30;64830;46.910;6.354;2022-11-20T14:44:17;6.61;78.68
76102;SHT30;64830;46.910;6.354;2022-11-20T14:46:43;6.53;77.97
76102;SHT30;64830;46.910;6.354;2022-11-20T14:49:10;6.48;78.37
76102;SHT30;64830;46.910;6.354;2022-11-20T14:51:38;6.46;78.98
76102;SHT30;64830;46.910;6.354;2022-11-20T14:54:17;6.51;79.09
76102;SHT30;64830;46.910;6.354;2022-11-20T14:59:26;6.56;79.48
76102;SHT30;64830;46.910;6.354;2022-11-20T15:01:58;6.58;79.27
76102;SHT30;64830;46.910;6.354;2022-11-20T15:04:24;6.58;79.43
76102;SHT30;64830;46.910;6.354;2022-11-20T15:06:52;6.59;79.43
76102;SHT30;64830;46.910;6.354;2022-11-20T15:09:18;6.61;79.38
76102;SHT30;64830;46.910;6.354;2022-11-20T15:12:04;6.64;79.30
76102;SHT30;64830;46.910;6.354;2022-11-20T15:14:30;6.64;79.32
76102;SHT30;64830;46.910;6.354;2022-11-20T15:16:58;6.62;79.27
76102;SHT30;64830;46.910;6.354;2022-11-20T15:19:25;6.64;79.64
76102;SHT30;64830;46.910;6.354;2022-11-20T15:21:52;6.64;79.10
76102;SHT30;64830;46.910;6.354;2022-11-20T15:24:17;6.58;78.85
76102;SHT30;64830;46.910;6.354;2022-11-20T15:26:43;6.55;79.17
76102;SHT30;64830;46.910;6.354;2022-11-20T15:29:14;6.52;79.02
76102;SHT30;64830;46.910;6.354;2022-11-20T15:31:39;6.49;78.52
76102;SHT30;64830;46.910;6.354;2022-11-20T15:34:14;6.38;78.57
76102;SHT30;64830;46.910;6.354;2022-11-20T15:36:39;6.31;79.16
76102;SHT30;64830;46.910;6.354;2022-11-20T15:39:05;6.28;79.79
76102;SHT30;64830;46.910;6.354;2022-11-20T15:41:33;6.31;79.71
76102;SHT30;64830;46.910;6.354;2022-11-20T15:43:59;6.23;79.33
76102;SHT30;64830;46.910;6.354;2022-11-20T15:46:29;6.20;79.55
76102;SHT30;64830;46.910;6.354;2022-11-20T15:48:56;6.18;79.41
76102;SHT30;64830;46.910;6.354;2022-11-20T15:53:52;6.17;79.97
76102;SHT30;64830;46.910;6.354;2022-11-20T15:56:17;6.20;80.09
76102;SHT30;64830;46.910;6.354;2022-11-20T15:58:43;6.20;80.13
76102;SHT30;64830;46.910;6.354;2022-11-20T16:01:11;6.18;80.19
76102;SHT30;64830;46.910;6.354;2022-11-20T16:03:37;6.18;79.92
76102;SHT30;64830;46.910;6.354;2022-11-20T16:06:02;6.17;79.80
76102;SHT30;64830;46.910;6.354;2022-11-20T16:08:27;6.17;80.02
76102;SHT30;64830;46.910;6.354;2022-11-20T16:10:53;6.14;79.89
76102;SHT30;64830;46.910;6.354;2022-11-20T16:13:18;6.11;79.66
76102;SHT30;64830;46.910;6.354;2022-11-20T16:16:08;6.06;79.63
76102;SHT30;64830;46.910;6.354;2022-11-20T16:18:36;6.05;79.83
76102;SHT30;64830;46.910;6.354;2022-11-20T16:21:02;6.03;79.65
76102;SHT30;64830;46.910;6.354;2022-11-20T16:23:28;6.00;79.82
76102;SHT30;64830;46.910;6.354;2022-11-20T16:25:53;5.97;79.85
76102;SHT30;64830;46.910;6.354;2022-11-20T16:28:19;5.95;80.10
76102;SHT30;64830;46.910;6.354;2022-11-20T16:30:45;5.95;80.39
76102;SHT30;64830;46.910;6.354;2022-11-20T16:33:14;5.93;80.76
76102;SHT30;64830;46.910;6.354;2022-11-20T16:35:40;5.93;81.18
76102;SHT30;64830;46.910;6.354;2022-11-20T16:38:05;5.93;81.47
76102;SHT30;64830;46.910;6.354;2022-11-20T16:40:31;5.90;81.57
76102;SHT30;64830;46.910;6.354;2022-11-20T16:42:56;5.88;82.33
76102;SHT30;64830;46.910;6.354;2022-11-20T16:45:22;5.80;82.14
76102;SHT30;64830;46.910;6.354;2022-11-20T16:47:48;5.78;82.49
76102;SHT30;64830;46.910;6.354;2022-11-20T16:50:14;5.72;82.48
76102;SHT30;64830;46.910;6.354;2022-11-20T16:52:40;5.75;82.48
76102;SHT30;64830;46.910;6.354;2022-11-20T16:55:06;5.68;82.62
76102;SHT30;64830;46.910;6.354;2022-11-20T16:57:31;5.71;82.78
76102;SHT30;64830;46.910;6.354;2022-11-20T17:00:02;5.78;82.84
76102;SHT30;64830;46.910;6.354;2022-11-20T17:02:28;5.75;82.19
76102;SHT30;64830;46.910;6.354;2022-11-20T17:04:53;5.76;82.15
76102;SHT30;64830;46.910;6.354;2022-11-20T17:07:19;5.78;82.22
76102;SHT30;64830;46.910;6.354;2022-11-20T17:09:44;5.80;81.67
76102;SHT30;64830;46.910;6.354;2022-11-20T17:12:09;5.78;81.06
76102;SHT30;64830;46.910;6.354;2022-11-20T17:14:35;5.76;81.49
76102;SHT30;64830;46.910;6.354;2022-11-20T17:17:01;5.75;80.61
76102;SHT30;64830;46.910;6.354;2022-11-20T17:19:26;5.73;79.37
76102;SHT30;64830;46.910;6.354;2022-11-20T17:21:52;5.72;77.78
76102;SHT30;64830;46.910;6.354;2022-11-20T17:24:18;5.61;75.17
76102;SHT30;64830;46.910;6.354;2022-11-20T17:26:44;5.47;78.35